Time;durP1;ratioP1;P1;durP2;ratioP2;P2;SDS_P1;SDS_P2;PMS_P1;PMS_P2;Temp;Humidity;BMP_temperature;BMP_pressure;BME280_temperature;BME280_humidity;BME280_pressure;Samples;Min_cycle;Max_cycle;Signal;HPM_P1;HPM_P2
2021/04/19 00:01:07;;;;;;;9.38;4.70;;;18.60;99.90;;;;;;4995508;28;20026;-66
2021/04/19 00:03:34;;;;;;;8.93;4.35;;;18.80;99.90;;;;;;4994331;28;20039;-67
2021/04/19 00:06:02;;;;;;;11.18;5.10;;;19.10;99.90;;;;;;4993285;28;20050;-67
2021/04/19 00:08:29;;;;;;;9.43;4.80;;;19.40;99.90;;;;;;4990818;28;20033;-67
2021/04/19 00:10:57;;;;;;;12.45;5.47;;;19.30;99.90;;;;;;4995411;28;20096;-67
2021/04/19 00:13:25;;;;;;;8.50;4.90;;;19.30;99.90;;;;;;4991889;28;20471;-67
2021/04/19 00:15:52;;;;;;;7.88;4.03;;;19.60;99.90;;;;;;4990740;28;20042;-67
2021/04/19 00:18:20;;;;;;;8.55;3.95;;;19.70;99.90;;;;;;4991986;28;20090;-67
2021/04/19 00:20:47;;;;;;;9.10;3.83;;;19.40;99.90;;;;;;4998124;28;20054;-68
2021/04/19 00:23:14;;;;;;;11.25;4.20;;;19.40;99.90;;;;;;4994676;28;20041;-67
2021/04/19 00:25:42;;;;;;;11.40;4.20;;;19.50;99.90;;;;;;4989172;28;20088;-67
2021/04/19 00:28:09;;;;;;;8.05;3.97;;;19.60;99.90;;;;;;4988910;28;20034;-68
2021/04/19 00:30:37;;;;;;;7.65;3.85;;;20.00;99.90;;;;;;4987932;28;20026;-68
2021/04/19 00:33:04;;;;;;;6.45;4.28;;;19.90;99.90;;;;;;4989772;28;20022;-68
2021/04/19 00:35:32;;;;;;;7.55;3.78;;;20.30;99.90;;;;;;4988608;28;20061;-68
2021/04/19 00:37:59;;;;;;;8.07;4.05;;;20.10;99.90;;;;;;4990897;28;20120;-67
2021/04/19 00:40:27;;;;;;;7.53;3.80;;;20.20;99.90;;;;;;4988342;28;20070;-68
2021/04/19 00:42:55;;;;;;;9.27;3.90;;;20.60;99.90;;;;;;4988695;28;20077;-68
2021/04/19 00:45:22;;;;;;;6.07;3.13;;;21.10;99.90;;;;;;4989691;28;20474;-68
2021/04/19 00:47:50;;;;;;;13.23;3.97;;;21.30;99.90;;;;;;4988010;28;20026;-68
2021/04/19 00:50:27;;;;;;;8.15;3.85;;;21.30;99.90;;;;;;4994039;28;20141;-68
2021/04/19 00:52:55;;;;;;;7.13;3.83;;;21.30;99.00;;;;;;4985237;28;20471;-68
2021/04/19 00:55:22;;;;;;;10.73;3.95;;;21.50;99.10;;;;;;4988753;28;20030;-67
2021/04/19 00:57:50;;;;;;;6.50;3.50;;;21.60;99.20;;;;;;4997735;28;20030;-68
2021/04/19 01:00:36;;;;;;;9.35;4.10;;;21.70;98.70;;;;;;5002510;28;20033;-68
2021/04/19 01:03:04;;;;;;;11.00;4.68;;;21.20;98.10;;;;;;4987123;28;20038;-68
2021/04/19 01:05:41;;;;;;;8.10;3.97;;;21.50;99.60;;;;;;5007839;28;20069;-67
2021/04/19 01:08:09;;;;;;;7.70;3.58;;;21.60;98.70;;;;;;4983834;28;20023;-67
2021/04/19 01:10:38;;;;;;;8.75;4.10;;;21.50;97.60;;;;;;4975134;28;20053;-68
2021/04/19 01:13:06;;;;;;;8.50;3.97;;;21.60;96.70;;;;;;4995091;28;20112;-68
2021/04/19 01:15:34;;;;;;;8.85;3.17;;;22.20;97.50;;;;;;4996349;28;20030;-68
2021/04/19 01:18:02;;;;;;;6.90;3.88;;;22.40;96.10;;;;;;4991724;28;20034;-68
2021/04/19 01:20:40;;;;;;;8.57;4.63;;;22.20;95.80;;;;;;4989539;28;20085;-68
2021/04/19 01:23:08;;;;;;;11.20;3.75;;;21.90;95.50;;;;;;4991775;28;20510;-68
2021/04/19 01:25:35;;;;;;;7.47;3.60;;;22.20;94.30;;;;;;4992580;28;20030;-68
2021/04/19 01:28:04;;;;;;;9.38;4.30;;;22.10;94.70;;;;;;4991603;28;20427;-68
2021/04/19 01:30:35;;;;;;;7.20;4.00;;;22.30;96.00;;;;;;4993573;28;20089;-68
2021/04/19 01:33:03;;;;;;;6.85;3.95;;;22.60;93.70;;;;;;4990362;28;20105;-68
2021/04/19 01:35:30;;;;;;;10.30;4.00;;;22.70;95.90;;;;;;4993153;28;20034;-68
2021/04/19 01:37:58;;;;;;;9.13;3.80;;;22.10;92.70;;;;;;4990470;28;20042;-68
2021/04/19 01:40:27;;;;;;;10.30;4.07;;;21.80;93.00;;;;;;4992877;28;20030;-68
2021/04/19 01:42:55;;;;;;;11.63;4.60;;;21.60;93.50;;;;;;4992136;28;20125;-68
2021/04/19 01:45:22;;;;;;;8.32;4.55;;;22.60;92.60;;;;;;4993518;28;20517;-68
2021/04/19 01:47:50;;;;;;;10.85;4.47;;;22.50;92.20;;;;;;4992287;28;20022;-68
2021/04/19 01:50:22;;;;;;;9.45;4.13;;;22.40;93.80;;;;;;4999337;28;20069;-68
2021/04/19 01:52:50;;;;;;;9.13;5.20;;;23.10;94.10;;;;;;4997549;28;20031;-68
2021/04/19 01:55:24;;;;;;;9.85;4.75;;;23.20;92.80;;;;;;4991729;28;20022;-68
2021/04/19 01:57:57;;;;;;;10.13;4.32;;;23.10;93.10;;;;;;4988321;28;20065;-68
2021/04/19 02:00:27;;;;;;;7.63;3.90;;;22.70;93.50;;;;;;4992645;28;20030;-68
2021/04/19 02:03:21;;;;;;;9.43;4.80;;;23.00;93.70;;;;;;4989258;28;20069;-69
2021/04/19 02:06:09;;;;;;;7.50;4.28;;;23.00;93.20;;;;;;4991803;28;20106;-68
2021/04/19 02:08:53;;;;;;;7.30;3.72;;;23.10;92.70;;;;;;4990959;28;20034;-68
2021/04/19 02:11:25;;;;;;;11.40;5.30;;;22.50;92.80;;;;;;4990475;28;20057;-68
2021/04/19 02:14:11;;;;;;;7.60;3.80;;;23.00;93.50;;;;;;4971759;28;20142;-68
2021/04/19 02:16:47;;;;;;;8.00;3.75;;;23.70;92.60;;;;;;4974506;28;20109;-68
2021/04/19 02:19:35;;;;;;;11.35;4.72;;;24.20;92.50;;;;;;4993085;28;20438;-68
2021/04/19 02:22:33;;;;;;;9.05;3.45;;;24.10;88.40;;;;;;4990980;28;20024;-68
2021/04/19 02:25:13;;;;;;;9.93;3.00;;;23.80;90.20;;;;;;4989258;28;20511;-69
2021/04/19 02:27:43;;;;;;;7.35;3.53;;;23.60;90.00;;;;;;4992375;28;20026;-69
2021/04/19 02:30:15;;;;;;;9.27;3.80;;;23.80;89.50;;;;;;4991134;28;20022;-68
2021/04/19 02:32:48;;;;;;;11.07;4.30;;;23.00;85.80;;;;;;4990410;28;20133;-68
2021/04/19 02:35:20;;;;;;;8.30;3.85;;;22.40;88.30;;;;;;4991690;28;20023;-68
2021/04/19 02:37:49;;;;;;;10.63;4.68;;;22.70;88.60;;;;;;4989982;28;20054;-68
2021/04/19 02:40:17;;;;;;;7.70;3.72;;;22.60;88.60;;;;;;4990490;28;20027;-68
2021/04/19 02:42:50;;;;;;;8.30;3.75;;;23.10;90.10;;;;;;4989505;28;20128;-68
2021/04/19 02:45:20;;;;;;;8.25;3.45;;;23.20;90.80;;;;;;4998914;28;20018;-68
2021/04/19 02:47:48;;;;;;;8.05;4.20;;;23.90;90.10;;;;;;4990325;28;20033;-69
2021/04/19 02:50:23;;;;;;;6.38;3.60;;;24.20;90.30;;;;;;4992231;28;20133;-69
2021/04/19 02:52:51;;;;;;;7.47;4.32;;;24.20;88.00;;;;;;4989321;28;20462;-68
2021/04/19 02:55:23;;;;;;;7.63;3.70;;;24.20;88.10;;;;;;4989395;28;20014;-68
2021/04/19 02:58:02;;;;;;;7.25;3.70;;;24.10;91.20;;;;;;4995315;28;20499;-69
2021/04/19 03:00:33;;;;;;;8.55;3.20;;;23.90;90.50;;;;;;4992783;28;20057;-66
2021/04/19 03:03:05;;;;;;;9.25;3.90;;;24.30;91.50;;;;;;4992032;28;20035;-67
2021/04/19 03:05:34;;;;;;;7.63;3.70;;;24.50;88.30;;;;;;5012438;28;20035;-67
2021/04/19 03:08:05;;;;;;;9.43;3.50;;;24.30;87.00;;;;;;4993870;28;20022;-67
2021/04/19 03:10:37;;;;;;;6.70;3.30;;;23.30;90.60;;;;;;4996292;28;20513;-67
2021/04/19 03:13:05;;;;;;;8.98;3.30;;;23.90;91.40;;;;;;4989245;28;20037;-67
2021/04/19 03:15:36;;;;;;;7.13;3.53;;;23.70;90.10;;;;;;4991173;28;20026;-67
2021/04/19 03:18:07;;;;;;;7.28;3.45;;;23.80;92.90;;;;;;4993958;28;20076;-67
2021/04/19 03:21:21;;;;;;;10.05;3.03;;;23.60;90.00;;;;;;4985312;28;20034;-67
2021/04/19 03:23:57;;;;;;;8.10;2.53;;;24.10;90.00;;;;;;4995137;28;20030;-67
2021/04/19 03:26:27;;;;;;;6.60;2.95;;;24.30;90.80;;;;;;4991042;28;20018;-67
2021/04/19 03:28:56;;;;;;;6.93;3.22;;;24.00;87.40;;;;;;4994192;28;20050;-67
2021/04/19 03:31:38;;;;;;;7.32;3.17;;;23.20;88.30;;;;;;4992149;28;20113;-67
2021/04/19 03:34:22;;;;;;;9.65;3.35;;;23.90;91.20;;;;;;4991152;28;20016;-67
2021/04/19 03:36:55;;;;;;;8.25;3.50;;;23.90;87.40;;;;;;4992418;28;20038;-68
2021/04/19 03:39:25;;;;;;;7.57;3.28;;;23.10;88.20;;;;;;4995433;28;20054;-68
2021/04/19 03:41:56;;;;;;;6.90;3.22;;;23.00;89.30;;;;;;4997842;28;20105;-68
2021/04/19 03:44:29;;;;;;;6.28;2.70;;;23.90;89.90;;;;;;4995365;28;20035;-68
2021/04/19 03:46:59;;;;;;;6.83;2.87;;;24.00;91.50;;;;;;4990554;28;20033;-68
2021/04/19 03:49:42;;;;;;;10.13;3.45;;;24.10;88.70;;;;;;4991896;28;20042;-68
2021/04/19 03:52:13;;;;;;;9.73;3.40;;;23.90;90.10;;;;;;4989138;28;20105;-68
2021/04/19 03:54:46;;;;;;;9.80;3.47;;;24.10;89.00;;;;;;4992457;28;20034;-68
2021/04/19 03:57:17;;;;;;;9.77;3.47;;;23.70;91.60;;;;;;4992198;28;20034;-68
2021/04/19 03:59:48;;;;;;;10.05;4.22;;;23.60;92.30;;;;;;4995549;28;20019;-68
2021/04/19 04:02:17;;;;;;;10.30;4.13;;;23.50;91.90;;;;;;4994172;28;20022;-68
2021/04/19 04:04:46;;;;;;;8.95;3.88;;;23.40;92.20;;;;;;4994478;28;20660;-68
2021/04/19 04:07:15;;;;;;;11.48;4.22;;;23.30;93.40;;;;;;4991668;28;20106;-68
2021/04/19 04:09:43;;;;;;;10.77;4.22;;;23.10;93.50;;;;;;4995359;28;20125;-68
2021/04/19 04:12:12;;;;;;;8.70;4.30;;;22.80;93.10;;;;;;4991197;28;20390;-68
2021/04/19 04:14:49;;;;;;;10.65;3.97;;;22.60;94.20;;;;;;4993580;28;20030;-68
2021/04/19 04:17:17;;;;;;;7.45;3.28;;;22.70;93.40;;;;;;4992834;28;20030;-68
2021/04/19 04:19:44;;;;;;;9.40;4.25;;;22.50;94.20;;;;;;4993596;28;20026;-68
2021/04/19 04:22:13;;;;;;;10.70;3.45;;;22.20;94.90;;;;;;4992620;28;20434;-68
2021/04/19 04:24:41;;;;;;;10.38;3.83;;;21.80;94.70;;;;;;4994179;28;20130;-68
2021/04/19 04:27:09;;;;;;;10.27;3.88;;;21.90;97.00;;;;;;4990539;28;20035;-68
2021/04/19 04:29:37;;;;;;;9.05;3.53;;;22.10;95.00;;;;;;4991794;28;20089;-68
2021/04/19 04:32:05;;;;;;;8.65;4.15;;;21.90;95.40;;;;;;4992525;28;20026;-68
2021/04/19 04:34:33;;;;;;;10.38;3.38;;;22.10;96.90;;;;;;4994654;28;20058;-69
2021/04/19 04:37:01;;;;;;;11.20;3.70;;;22.30;95.60;;;;;;4990479;28;20064;-69
2021/04/19 04:39:28;;;;;;;10.27;4.35;;;21.80;95.80;;;;;;4993199;28;20117;-68
2021/04/19 04:41:55;;;;;;;9.52;4.32;;;21.80;96.20;;;;;;4998167;28;20442;-68
2021/04/19 04:44:41;;;;;;;21.95;5.05;;;21.60;96.40;;;;;;4993619;28;20065;-68
2021/04/19 04:47:36;;;;;;;8.55;3.83;;;21.50;96.60;;;;;;4986750;28;20375;-68
2021/04/19 04:50:09;;;;;;;5.70;2.80;;;21.40;97.00;;;;;;4994236;28;20046;-68
2021/04/19 04:52:44;;;;;;;11.27;3.22;;;21.50;97.30;;;;;;4990613;28;20432;-68
2021/04/19 04:55:15;;;;;;;9.02;3.90;;;21.40;98.60;;;;;;4984175;28;20091;-68
2021/04/19 04:57:46;;;;;;;9.32;3.13;;;21.40;99.40;;;;;;4993188;28;20034;-68
2021/04/19 05:00:16;;;;;;;5.80;2.83;;;21.30;99.40;;;;;;4994250;28;20386;-69
2021/04/19 05:02:49;;;;;;;11.88;3.65;;;21.30;99.70;;;;;;4991715;28;20104;-69
2021/04/19 05:05:17;;;;;;;6.53;3.85;;;21.30;99.90;;;;;;4994317;28;20164;-69
2021/04/19 05:07:46;;;;;;;6.43;3.33;;;21.20;99.90;;;;;;4989885;28;20026;-69
2021/04/19 05:10:14;;;;;;;14.68;3.47;;;21.00;99.90;;;;;;4994448;28;20018;-68
2021/04/19 05:12:42;;;;;;;10.50;3.53;;;21.00;99.90;;;;;;4992118;28;20034;-68
2021/04/19 05:15:14;;;;;;;10.90;3.78;;;20.90;99.90;;;;;;4988462;28;20054;-69
2021/04/19 05:17:45;;;;;;;10.73;3.15;;;20.80;99.90;;;;;;4991380;28;20109;-69
2021/04/19 05:20:15;;;;;;;9.45;3.60;;;20.70;99.90;;;;;;4992617;28;20515;-68
2021/04/19 05:22:44;;;;;;;7.55;3.50;;;20.70;99.90;;;;;;4991852;28;20423;-68
2021/04/19 05:25:12;;;;;;;8.30;3.97;;;20.60;99.90;;;;;;4994071;28;20048;-69
2021/04/19 05:27:40;;;;;;;6.85;2.88;;;20.60;99.90;;;;;;4990745;28;20116;-68
2021/04/19 05:30:08;;;;;;;8.57;2.55;;;20.60;99.90;;;;;;4992624;28;20022;-69
2021/04/19 05:32:35;;;;;;;5.10;2.35;;;20.60;99.90;;;;;;4991065;28;20034;-68
2021/04/19 05:35:03;;;;;;;3.78;2.65;;;20.50;99.90;;;;;;4993774;28;20077;-69
2021/04/19 05:37:30;;;;;;;5.45;2.30;;;20.50;99.90;;;;;;4992310;28;20030;-69
2021/04/19 05:39:58;;;;;;;5.07;2.65;;;20.60;99.90;;;;;;4993817;28;20058;-68
2021/04/19 05:42:26;;;;;;;4.97;2.45;;;20.50;99.90;;;;;;4996504;28;20483;-69
2021/04/19 05:44:53;;;;;;;7.43;2.67;;;20.50;99.90;;;;;;4987742;28;20630;-69
2021/04/19 05:47:20;;;;;;;4.20;2.10;;;20.40;99.90;;;;;;4988450;28;20081;-69
2021/04/19 05:49:49;;;;;;;6.15;2.25;;;20.40;99.90;;;;;;4989167;28;20439;-69
2021/04/19 05:52:16;;;;;;;7.25;2.50;;;20.40;99.90;;;;;;4988244;28;20030;-69
2021/04/19 05:54:44;;;;;;;5.22;2.58;;;20.40;99.90;;;;;;4991841;28;20023;-69
2021/04/19 05:57:20;;;;;;;7.70;2.53;;;20.40;99.90;;;;;;4991565;28;20023;-69
2021/04/19 06:00:06;;;;;;;5.50;2.90;;;20.40;99.90;;;;;;4993576;28;20027;-69
2021/04/19 06:02:57;;;;;;;5.68;3.00;;;20.30;99.90;;;;;;4989273;28;20136;-69
2021/04/19 06:06:06;;;;;;;7.45;3.00;;;20.20;99.90;;;;;;4990489;28;20038;-69
2021/04/19 06:08:58;;;;;;;6.03;3.05;;;20.10;99.90;;;;;;4989205;28;20399;-69
2021/04/19 06:11:49;;;;;;;4.93;2.90;;;20.10;99.90;;;;;;4985368;28;20666;-69
2021/04/19 06:14:20;;;;;;;5.20;2.88;;;20.10;99.90;;;;;;4993515;28;20035;-69
2021/04/19 06:16:49;;;;;;;7.80;3.70;;;20.00;99.90;;;;;;4987502;28;20026;-69
2021/04/19 06:19:18;;;;;;;7.00;3.25;;;20.00;99.90;;;;;;4990396;28;20030;-70
2021/04/19 06:21:46;;;;;;;6.80;3.33;;;20.00;99.90;;;;;;4985800;28;20494;-68
2021/04/19 06:24:14;;;;;;;6.95;2.92;;;19.90;99.90;;;;;;4988509;28;20491;-68
2021/04/19 06:26:41;;;;;;;8.32;3.60;;;19.90;99.90;;;;;;4986739;28;20022;-68
2021/04/19 06:29:11;;;;;;;5.28;3.00;;;20.00;99.90;;;;;;4990082;28;20077;-69
2021/04/19 06:31:47;;;;;;;5.25;2.35;;;19.90;99.90;;;;;;4990698;28;20054;-69
2021/04/19 06:34:15;;;;;;;7.30;2.58;;;19.90;99.90;;;;;;4991015;28;20029;-69
2021/04/19 06:36:48;;;;;;;4.80;2.50;;;19.90;99.90;;;;;;4985212;28;20022;-69
2021/04/19 06:39:17;;;;;;;8.60;3.13;;;19.80;99.90;;;;;;4990542;28;20442;-69
2021/04/19 06:41:45;;;;;;;7.32;3.50;;;19.80;99.90;;;;;;4988982;28;20014;-69
2021/04/19 06:44:14;;;;;;;6.13;3.08;;;19.70;99.90;;;;;;4998107;28;20395;-68
2021/04/19 06:46:43;;;;;;;7.78;2.78;;;19.70;99.90;;;;;;4989254;28;20025;-68
2021/04/19 06:49:13;;;;;;;10.07;3.20;;;19.70;99.90;;;;;;4986440;28;20375;-68
2021/04/19 06:51:41;;;;;;;8.27;3.15;;;19.70;99.90;;;;;;5008145;28;20066;-68
2021/04/19 06:54:10;;;;;;;8.38;2.88;;;19.60;99.90;;;;;;5004374;28;20034;-68
2021/04/19 06:56:43;;;;;;;8.27;3.55;;;19.50;99.90;;;;;;4988254;28;20032;-68
2021/04/19 06:59:13;;;;;;;5.83;2.57;;;19.50;99.90;;;;;;4983465;28;20034;-68
2021/04/19 07:01:43;;;;;;;7.30;2.83;;;19.50;99.90;;;;;;4987425;28;20291;-67
2021/04/19 07:04:19;;;;;;;4.72;2.50;;;19.60;99.90;;;;;;4993043;28;20018;-68
2021/04/19 07:06:49;;;;;;;6.63;2.65;;;19.50;99.90;;;;;;4985983;28;20030;-68
2021/04/19 07:09:27;;;;;;;6.63;2.67;;;19.50;99.90;;;;;;4985312;28;20574;-68
2021/04/19 07:11:56;;;;;;;5.15;3.30;;;19.50;99.90;;;;;;4987579;28;20029;-68
2021/04/19 07:14:25;;;;;;;5.60;3.30;;;19.40;99.90;;;;;;4985179;28;20026;-68
2021/04/19 07:16:52;;;;;;;7.10;2.78;;;19.30;99.90;;;;;;4985813;28;20030;-67
2021/04/19 07:19:21;;;;;;;6.35;2.83;;;19.30;99.90;;;;;;4985385;28;20061;-68
2021/04/19 07:21:48;;;;;;;6.38;3.08;;;19.30;99.90;;;;;;4990355;28;20049;-68
2021/04/19 07:24:15;;;;;;;6.75;2.92;;;19.30;99.90;;;;;;4992663;28;20046;-68
2021/04/19 07:26:45;;;;;;;8.55;2.92;;;19.20;99.90;;;;;;4990850;28;20057;-68
2021/04/19 07:29:12;;;;;;;5.95;2.40;;;19.10;99.90;;;;;;4992784;28;20391;-68
2021/04/19 07:31:51;;;;;;;6.45;3.00;;;19.20;99.90;;;;;;4990275;28;20027;-68
2021/04/19 07:34:21;;;;;;;4.53;2.45;;;19.10;99.90;;;;;;4992587;28;20034;-68
2021/04/19 07:36:50;;;;;;;5.78;2.60;;;19.00;99.90;;;;;;4983646;28;20173;-67
2021/04/19 07:39:21;;;;;;;7.43;3.03;;;19.00;99.90;;;;;;4994192;28;20018;-68
2021/04/19 07:41:53;;;;;;;8.13;3.10;;;19.00;99.90;;;;;;4993091;28;20022;-68
2021/04/19 07:44:49;;;;;;;7.07;2.65;;;19.00;99.90;;;;;;4995823;28;20494;-68
2021/04/19 07:47:20;;;;;;;5.13;2.78;;;19.00;99.90;;;;;;4993533;28;20080;-68
2021/04/19 07:50:02;;;;;;;5.72;2.95;;;18.90;99.90;;;;;;4995706;28;20100;-67
2021/04/19 07:52:37;;;;;;;6.68;2.90;;;18.90;99.90;;;;;;4992857;28;20140;-68
2021/04/19 07:55:18;;;;;;;8.48;2.90;;;18.80;99.90;;;;;;4994503;28;20032;-68
2021/04/19 07:57:47;;;;;;;7.28;2.88;;;18.80;99.90;;;;;;4991184;28;20030;-68
2021/04/19 08:00:33;;;;;;;6.75;3.58;;;18.80;99.90;;;;;;4995539;28;20517;-68
2021/04/19 08:03:07;;;;;;;8.82;3.33;;;18.80;99.90;;;;;;4993428;28;20030;-68
2021/04/19 08:05:39;;;;;;;;;;;18.70;99.90;;;;;;4996056;28;20101;-68
2021/04/19 08:08:08;;;;;;;5.13;3.88;;;18.70;99.90;;;;;;4992415;28;20277;-68
2021/04/19 08:10:37;;;;;;;6.53;2.95;;;18.60;99.90;;;;;;4993077;28;20030;-68
2021/04/19 08:13:07;;;;;;;5.57;2.80;;;18.60;99.90;;;;;;4989078;28;20027;-67
2021/04/19 08:15:35;;;;;;;8.52;3.28;;;18.50;99.90;;;;;;4992738;28;20458;-68
2021/04/19 08:18:06;;;;;;;7.53;3.15;;;18.50;99.90;;;;;;4992835;28;20114;-68
2021/04/19 08:20:34;;;;;;;6.50;3.35;;;18.50;99.90;;;;;;5009213;28;20105;-68
2021/04/19 08:23:11;;;;;;;5.70;3.20;;;18.50;99.90;;;;;;4997972;28;20033;-67
2021/04/19 08:25:45;;;;;;;8.25;3.55;;;18.40;99.90;;;;;;4995704;28;20054;-68
2021/04/19 08:28:27;;;;;;;4.20;3.35;;;18.50;99.90;;;;;;4993167;28;20109;-68
2021/04/19 08:30:58;;;;;;;8.02;3.05;;;18.50;99.90;;;;;;4995512;28;20121;-67
2021/04/19 08:33:28;;;;;;;7.43;3.10;;;18.40;99.90;;;;;;4993076;28;20034;-67
2021/04/19 08:35:56;;;;;;;9.32;3.65;;;18.30;99.90;;;;;;4995317;28;20019;-67
2021/04/19 08:38:24;;;;;;;6.88;3.58;;;18.30;99.90;;;;;;4992905;28;20027;-68
2021/04/19 08:40:53;;;;;;;7.93;4.28;;;18.30;99.90;;;;;;4998338;28;20489;-67
2021/04/19 08:43:25;;;;;;;9.23;3.78;;;18.30;99.90;;;;;;4994407;28;20561;-67
2021/04/19 08:45:52;;;;;;;11.73;3.50;;;18.40;99.90;;;;;;4993974;28;20080;-67
2021/04/19 08:48:20;;;;;;;6.90;3.08;;;18.40;99.90;;;;;;4992802;28;20019;-68
2021/04/19 08:50:51;;;;;;;6.90;3.38;;;18.40;99.90;;;;;;4992657;28;20062;-68
2021/04/19 08:53:19;;;;;;;10.60;3.85;;;18.30;99.90;;;;;;4990590;28;20030;-67
2021/04/19 08:55:48;;;;;;;7.20;3.13;;;18.30;99.90;;;;;;4994995;28;20030;-68
2021/04/19 08:58:18;;;;;;;5.95;3.40;;;18.30;99.90;;;;;;4992523;28;20034;-68
2021/04/19 09:00:59;;;;;;;7.32;3.47;;;18.30;99.90;;;;;;4994785;28;20136;-68
2021/04/19 09:03:26;;;;;;;6.63;3.22;;;18.20;99.90;;;;;;4992370;28;20522;-68
2021/04/19 09:05:54;;;;;;;5.90;3.30;;;18.20;99.90;;;;;;4992875;28;20507;-68
2021/04/19 09:08:22;;;;;;;6.20;3.92;;;18.20;99.90;;;;;;4992928;28;20030;-68
2021/04/19 09:10:56;;;;;;;9.68;5.00;;;18.20;99.90;;;;;;4994452;28;20038;-68
2021/04/19 09:13:29;;;;;;;9.32;3.70;;;18.10;99.90;;;;;;4994588;28;20021;-68
2021/04/19 09:16:17;;;;;;;9.00;4.13;;;18.10;99.90;;;;;;4993599;28;20414;-68
2021/04/19 09:18:54;;;;;;;8.48;4.63;;;18.10;99.90;;;;;;4994011;28;20041;-68
2021/04/19 09:21:39;;;;;;;9.68;4.18;;;18.10;99.90;;;;;;4992006;28;20029;-68
2021/04/19 09:24:12;;;;;;;12.02;4.93;;;18.00;99.90;;;;;;4992750;28;20395;-68
2021/04/19 09:26:58;;;;;;;9.98;4.50;;;18.00;99.90;;;;;;4992476;28;20022;-68
2021/04/19 09:29:25;;;;;;;8.13;5.20;;;18.10;99.90;;;;;;4991475;28;20026;-67
2021/04/19 09:32:03;;;;;;;9.80;4.88;;;18.00;99.90;;;;;;4991817;28;20057;-68
2021/04/19 09:34:44;;;;;;;12.52;4.43;;;18.00;99.90;;;;;;4994225;28;20032;-68
2021/04/19 09:37:19;;;;;;;6.82;3.88;;;17.90;99.90;;;;;;4991690;28;20029;-68
2021/04/19 09:40:00;;;;;;;8.95;3.72;;;18.00;99.90;;;;;;4993979;28;20109;-68
2021/04/19 09:43:02;;;;;;;12.35;4.10;;;17.90;99.90;;;;;;4995653;28;20088;-68
2021/04/19 09:45:53;;;;;;;8.60;4.03;;;17.90;99.90;;;;;;4993869;28;20042;-68
2021/04/19 09:48:30;;;;;;;11.27;4.43;;;17.80;99.90;;;;;;4991345;28;20048;-68
2021/04/19 09:51:02;;;;;;;10.35;3.90;;;17.80;99.90;;;;;;4992053;28;20057;-68
2021/04/19 09:53:32;;;;;;;9.68;4.75;;;17.80;99.90;;;;;;4990676;28;20058;-68
2021/04/19 09:56:00;;;;;;;12.07;5.00;;;17.70;99.90;;;;;;4993358;28;20026;-68
2021/04/19 09:58:30;;;;;;;12.68;4.82;;;17.70;99.90;;;;;;4991081;28;20101;-68
2021/04/19 10:01:01;;;;;;;9.77;4.78;;;17.70;99.90;;;;;;4987122;28;20055;-68
2021/04/19 10:03:28;;;;;;;9.18;4.40;;;17.70;99.90;;;;;;4991144;28;20101;-68
2021/04/19 10:06:00;;;;;;;7.03;4.82;;;17.70;99.90;;;;;;4991972;28;20023;-68
2021/04/19 10:08:28;;;;;;;7.45;4.47;;;17.80;99.90;;;;;;4995304;28;20026;-68
2021/04/19 10:10:58;;;;;;;8.93;4.53;;;17.70;99.90;;;;;;5012512;28;20383;-68
2021/04/19 10:13:38;;;;;;;8.93;4.13;;;17.70;99.90;;;;;;4991107;28;20517;-68
2021/04/19 10:16:13;;;;;;;10.63;4.95;;;17.60;99.90;;;;;;4991611;28;20028;-68
2021/04/19 10:18:43;;;;;;;10.10;4.93;;;17.70;99.90;;;;;;4992278;28;20049;-68
2021/04/19 10:21:23;;;;;;;7.88;4.55;;;17.70;99.90;;;;;;4992195;28;20486;-67
2021/04/19 10:23:51;;;;;;;13.30;4.63;;;17.70;99.90;;;;;;4973516;28;20062;-67
2021/04/19 10:26:18;;;;;;;9.85;4.82;;;17.70;99.90;;;;;;4973048;28;20026;-66
2021/04/19 10:28:46;;;;;;;14.25;5.03;;;17.60;99.90;;;;;;4993096;28;20380;-67
2021/04/19 10:31:19;;;;;;;7.57;4.43;;;17.60;99.90;;;;;;4992014;28;20026;-67
2021/04/19 10:33:54;;;;;;;7.38;4.85;;;17.60;99.90;;;;;;4991078;28;20026;-67
2021/04/19 10:36:24;;;;;;;7.53;4.57;;;17.60;99.90;;;;;;4990848;28;20030;-67
2021/04/19 10:38:59;;;;;;;11.25;5.55;;;17.70;99.90;;;;;;4992557;28;20027;-67
2021/04/19 10:41:35;;;;;;;10.93;4.80;;;17.70;99.90;;;;;;4990961;28;20041;-67
2021/04/19 10:44:04;;;;;;;11.52;4.72;;;17.70;99.90;;;;;;4992479;28;20076;-68
2021/04/19 10:46:33;;;;;;;9.93;5.68;;;17.70;99.90;;;;;;4991890;28;20026;-68
2021/04/19 10:49:03;;;;;;;9.82;4.97;;;17.70;99.90;;;;;;4991685;28;20053;-68
2021/04/19 10:51:35;;;;;;;10.13;4.88;;;17.70;99.90;;;;;;4992123;28;20089;-68
2021/04/19 10:54:09;;;;;;;9.05;4.95;;;17.70;99.90;;;;;;4986859;28;20030;-67
2021/04/19 10:56:42;;;;;;;10.00;4.85;;;17.60;99.90;;;;;;4990144;28;20058;-67
2021/04/19 10:59:11;;;;;;;10.82;5.10;;;17.60;99.90;;;;;;4990945;28;20113;-67
2021/04/19 11:01:40;;;;;;;11.73;5.80;;;17.70;99.90;;;;;;4993031;28;20423;-67
2021/04/19 11:04:09;;;;;;;9.48;5.00;;;17.60;99.90;;;;;;5003881;28;20030;-68
2021/04/19 11:06:39;;;;;;;10.45;4.85;;;17.70;99.90;;;;;;4992212;28;20030;-67
2021/04/19 11:09:19;;;;;;;8.73;5.07;;;17.60;99.90;;;;;;4991829;28;20034;-68
2021/04/19 11:11:51;;;;;;;14.13;5.45;;;17.60;99.90;;;;;;4992254;28;20073;-67
2021/04/19 11:14:25;;;;;;;9.02;4.55;;;17.60;99.90;;;;;;4995528;28;20451;-68
2021/04/19 11:17:00;;;;;;;7.20;4.28;;;17.60;99.90;;;;;;4995895;28;20525;-68
2021/04/19 11:19:48;;;;;;;9.75;5.45;;;17.60;99.90;;;;;;4995945;28;20566;-68
2021/04/19 11:22:26;;;;;;;10.30;5.03;;;17.60;99.90;;;;;;4995332;28;20085;-67
2021/04/19 11:24:54;;;;;;;8.20;4.30;;;17.50;99.90;;;;;;4994407;28;20366;-68
2021/04/19 11:27:28;;;;;;;7.53;5.05;;;17.50;99.90;;;;;;4994179;28;20347;-67
2021/04/19 11:29:55;;;;;;;8.38;4.38;;;17.40;99.90;;;;;;4992609;28;20023;-68
2021/04/19 11:32:34;;;;;;;8.82;4.47;;;17.40;99.90;;;;;;4994245;28;20061;-67
2021/04/19 11:35:05;;;;;;;12.57;4.43;;;17.40;99.90;;;;;;4995073;28;20026;-67
2021/04/19 11:37:39;;;;;;;10.57;5.38;;;17.40;99.90;;;;;;4994960;28;20118;-69
2021/04/19 11:40:25;;;;;;;10.75;5.10;;;17.40;99.90;;;;;;4995685;28;20030;-69
2021/04/19 11:42:52;;;;;;;12.10;4.72;;;17.40;99.90;;;;;;4993877;28;20073;-69
2021/04/19 11:45:25;;;;;;;6.40;4.50;;;17.40;99.90;;;;;;4994989;28;20030;-69
2021/04/19 11:47:53;;;;;;;7.30;5.18;;;17.40;99.90;;;;;;4992828;28;20124;-69
2021/04/19 11:50:23;;;;;;;7.47;4.47;;;17.40;99.90;;;;;;4996123;28;20053;-69
2021/04/19 11:52:52;;;;;;;11.20;4.75;;;17.40;99.90;;;;;;4995098;28;20094;-68
2021/04/19 11:55:19;;;;;;;11.20;4.22;;;17.30;99.90;;;;;;4992242;28;20053;-69
2021/04/19 11:57:46;;;;;;;10.27;5.38;;;17.30;99.90;;;;;;4994273;28;20038;-69
2021/04/19 12:00:15;;;;;;;8.57;5.22;;;17.30;99.90;;;;;;4994557;28;20045;-68
2021/04/19 12:02:43;;;;;;;11.00;6.10;;;17.30;99.90;;;;;;4993023;28;20026;-69
2021/04/19 12:05:11;;;;;;;6.75;4.82;;;17.20;99.90;;;;;;4988192;28;20030;-68
2021/04/19 12:07:38;;;;;;;10.38;4.70;;;17.20;99.90;;;;;;4993667;28;20027;-69
2021/04/19 12:10:07;;;;;;;12.57;6.32;;;17.40;99.90;;;;;;4993721;28;20030;-68
2021/04/19 12:12:35;;;;;;;8.88;5.57;;;17.40;99.90;;;;;;4989081;28;20101;-68
2021/04/19 12:15:03;;;;;;;9.38;6.03;;;17.40;99.90;;;;;;4992564;28;20434;-68
2021/04/19 12:17:30;;;;;;;11.68;5.97;;;17.30;99.90;;;;;;4995148;28;20076;-68
2021/04/19 12:19:57;;;;;;;11.57;7.00;;;17.30;99.90;;;;;;4994238;28;20026;-68
2021/04/19 12:22:25;;;;;;;13.18;6.65;;;17.20;99.90;;;;;;4994473;28;20033;-69
2021/04/19 12:24:52;;;;;;;10.20;5.72;;;17.10;99.90;;;;;;4991902;28;20030;-69
2021/04/19 12:27:19;;;;;;;11.88;5.88;;;17.10;99.90;;;;;;4994198;28;20030;-68
2021/04/19 12:29:46;;;;;;;15.57;7.22;;;17.10;99.90;;;;;;4994090;28;20026;-68
2021/04/19 12:32:14;;;;;;;11.00;6.60;;;17.10;99.90;;;;;;4993609;28;20024;-68
2021/04/19 12:34:42;;;;;;;11.43;7.68;;;17.00;99.90;;;;;;4993349;28;20029;-68
2021/04/19 12:37:09;;;;;;;10.63;7.03;;;17.00;99.90;;;;;;4993272;28;20487;-69
2021/04/19 12:39:36;;;;;;;10.07;7.07;;;17.00;99.90;;;;;;4994509;28;20023;-68
2021/04/19 12:42:04;;;;;;;15.75;8.27;;;17.00;99.90;;;;;;4999252;28;20026;-68
2021/04/19 12:44:32;;;;;;;10.60;6.30;;;16.90;99.90;;;;;;4994121;28;20046;-68
2021/04/19 12:46:59;;;;;;;11.13;7.30;;;16.90;99.90;;;;;;4993915;28;20026;-69
2021/04/19 12:49:26;;;;;;;10.65;7.35;;;16.80;99.90;;;;;;4991056;28;20069;-68
2021/04/19 12:51:53;;;;;;;9.52;6.43;;;16.70;99.90;;;;;;5003839;28;20393;-68
2021/04/19 12:54:21;;;;;;;10.88;6.82;;;16.70;99.90;;;;;;4990086;28;20109;-68
2021/04/19 12:56:48;;;;;;;9.25;6.30;;;16.60;99.90;;;;;;5004061;28;20061;-68
2021/04/19 12:59:16;;;;;;;9.68;6.57;;;16.60;99.90;;;;;;4992192;28;20030;-69
2021/04/19 13:01:44;;;;;;;8.05;6.15;;;16.50;99.90;;;;;;4993774;28;20117;-68
2021/04/19 13:04:14;;;;;;;7.90;5.43;;;16.50;99.90;;;;;;4993154;28;20375;-68
2021/04/19 13:06:42;;;;;;;12.30;5.70;;;16.50;99.90;;;;;;4991552;28;20091;-68